Pagrindinis puslapis
METAR-TAF:

METAR-TAF

Oro uostai :

Cortez, Koloradas, Jungtinės Amerikos Valstijos

platuma: 37-18-23N, ilguma: 108-37-32W, Aukštis: 1803 m

Dabartinis oras

Ataskaita buvo paskelbta 39 minutes, ne 20:53 UTC
Vėjas 22 kt iš Šiaurės Vakarų su gūsio iki 32 kt
Temperatūra 4°C
Drėgmė 60%
Slėgis 1018 hPa
Matomumas: 16.1 km
Mažai debesys ne aukštis 6000 ft

METAR: KCEZ 272053Z AUTO 32022G32KT 10SM FEW060 04/M03 A3005 RMK AO2 PK WND 30032/2022 SLP171 T00391033 56004

Laikas: 14:32 (21:32 UTC)


TAF: trūkstamas

Orai ataskaitas ir orų prognozės (METAR, TAF).

turimą stotys yra geltonos ir raudonos taškus žemėlapyje.

Perkelti pele per norėdami pamatyti stoties vardą.

Tada spustelėkite, norėdami matyti oro stebėjimo ir prognozės.

Norėdami pakeisti žemėlapį: spustelėkite ant žalios mygtukų su juodo kryžiaus žemyn,; žalią mygtuką su brūkšneliu, jei norite nutolinti; arba žalių rodyklių gretimoms žemėlapius.


METAR-TAF: